Startpagina
METAR-TAF:

METAR-TAF

Vliegvelden :

Osijek, Kroatië

breedte: 45-27N, lengte: 018-48E, hoogte: 88 m

Actueel weer

Dit bericht is 21 minuten geleden gemaakt, om 11:30 UTC
Wind 9 kt uit het oostnoordoosten, variërend tussen het noordnoordoosten en het oostzuidoosten
Temperatuur 24°C
Vochtigheid 41%
Druk 1019 hPa
Zicht 10 km of meer
geen wolken onder 1500 m en geen cumulonimbus

METAR: LDOS 201130Z 07009KT 020V110 CAVOK 24/10 Q1019

Tijdstip: 13:51 (11:51 UTC)

Verwachting

Dit bericht is 26 minuten geleden gemaakt, om 11:25 UTC
Verwachting geldig van 20 om 12 UTC tot 21 om 12 UTC
Wind 8 kt uit het noordoosten
Zicht 10 km of meer
geen wolken onder 1500 m en geen cumulonimbus

TAF: LDOS 201125Z 2012/2112 05008KT CAVOK TX25/2014Z TN12/2104Z

Waarnemingen en weersverwachtingen van meer dan 4000 vliegvelden (METAR en TAF).

De beschikbare stations zijn de gele en rode punten op de kaart.

Ga met uw muis naar het station om de naam te zien.

Klik dan om waarnemingen en weersverwachtingen te zien.

kaart wijzigen: klik op de groene knoppen met een zwart kruis om in te zoomen, op de groene knop met een streepje om uit te zoomen of op de groene pijlen voor aangrenzende kaarten.


METAR-TAF: